Time,TemperatureF,DewpointF,PressureIn,WindDirection,WindDirectionDegrees,WindSpeedMPH,WindSpeedGustMPH,Humidity,HourlyPrecipIn,Conditions,Clouds,dailyrainin,SoftwareType,DateUTC
2013-04-26 00:00:00,44.3,28.7,30.07,ESE,112,4.0,11.0,54,0.00,,SKC,0.00,VWS V14.01,2013-04-26 05:00:00,
2013-04-26 00:05:00,44.3,29.0,30.06,East,87,4.0,-999.0,55,-99.99,,,0.00,weatherlink.com 1.10,2013-04-26 05:05:00,
2013-04-26 00:20:00,44.0,29.0,30.05,ESE,121,4.0,-999.0,55,-99.99,,,0.00,weatherlink.com 1.10,2013-04-26 05:20:00,
2013-04-26 00:30:00,44.1,29.0,30.05,ESE,112,4.0,11.0,55,0.00,,SKC,0.00,VWS V14.01,2013-04-26 05:30:00,
2013-04-26 00:35:00,44.3,29.0,30.06,East,101,1.0,-999.0,55,-99.99,,,0.00,weatherlink.com 1.10,2013-04-26 05:35:00,
2013-04-26 00:50:00,44.3,29.0,30.04,ESE,117,6.0,-999.0,55,-99.99,,,0.00,weatherlink.com 1.10,2013-04-26 05:50:00,
2013-04-26 01:00:00,44.3,29.2,30.04,ESE,112,4.0,11.0,55,0.00,,SKC,0.00,VWS V14.01,2013-04-26 06:00:00,
2013-04-26 01:06:00,44.4,29.0,30.05,ESE,120,4.0,-999.0,55,-99.99,,,0.00,weatherlink.com 1.10,2013-04-26 06:06:00,
2013-04-26 01:21:00,44.3,32.0,30.05,ESE,109,2.0,-999.0,62,-99.99,,,0.00,weatherlink.com 1.10,2013-04-26 06:21:00,
2013-04-26 01:30:00,44.0,32.2,30.04,ESE,112,4.0,13.0,63,0.00,,SKC,0.00,VWS V14.01,2013-04-26 06:30:00,
2013-04-26 01:36:00,43.6,33.0,30.03,North,5,1.0,-999.0,67,-99.99,,,0.01,weatherlink.com 1.10,2013-04-26 06:36:00,
2013-04-26 01:51:00,42.9,32.0,30.01,East,80,3.0,-999.0,66,-99.99,,,0.01,weatherlink.com 1.10,2013-04-26 06:51:00,
2013-04-26 02:00:00,43.1,32.2,30.01,East,90,1.0,7.0,65,0.01,,SKC,0.01,VWS V14.01,2013-04-26 07:00:00,
2013-04-26 02:06:00,43.1,32.0,30.00,ENE,78,1.0,-999.0,65,-99.99,,,0.01,weatherlink.com 1.10,2013-04-26 07:06:00,
2013-04-26 02:21:00,43.1,32.0,30.00,ESE,102,1.0,-999.0,65,-99.99,,,0.01,weatherlink.com 1.10,2013-04-26 07:21:00,
2013-04-26 02:30:00,43.2,31.9,30.01,East,90,2.0,8.0,64,0.01,,SKC,0.01,VWS V14.01,2013-04-26 07:30:00,
2013-04-26 02:36:00,43.1,32.0,30.02,East,88,0.0,-999.0,66,-99.99,,,0.01,weatherlink.com 1.10,2013-04-26 07:36:00,
2013-04-26 02:51:00,42.6,32.0,30.00,East,88,0.0,-999.0,67,-99.99,,,0.01,weatherlink.com 1.10,2013-04-26 07:51:00,
2013-04-26 03:00:00,42.5,32.3,30.00,East,90,1.0,4.0,67,0.01,,SKC,0.01,VWS V14.01,2013-04-26 08:00:00,
2013-04-26 03:06:00,42.4,32.0,30.00,East,85,2.0,-999.0,68,-99.99,,,0.01,weatherlink.com 1.10,2013-04-26 08:06:00,
2013-04-26 03:21:00,42.0,32.0,30.01,East,85,0.0,-999.0,69,-99.99,,,0.01,weatherlink.com 1.10,2013-04-26 08:21:00,
2013-04-26 03:30:00,41.8,33.5,30.01,East,90,0.0,5.0,72,0.00,,SKC,0.01,VWS V14.01,2013-04-26 08:30:00,
2013-04-26 03:36:00,41.1,33.0,30.01,East,84,0.0,-999.0,73,-99.99,,,0.01,weatherlink.com 1.10,2013-04-26 08:36:00,
2013-04-26 03:51:00,40.7,33.0,29.97,East,92,6.0,-999.0,74,-99.99,,,0.01,weatherlink.com 1.10,2013-04-26 08:51:00,
2013-04-26 04:00:00,40.9,32.9,29.97,East,90,2.0,8.0,73,0.00,,SKC,0.01,VWS V14.01,2013-04-26 09:00:00,
2013-04-26 04:06:00,41.4,32.0,29.96,ESE,115,6.0,-999.0,70,-99.99,,,0.01,weatherlink.com 1.10,2013-04-26 09:06:00,
2013-04-26 04:21:00,42.0,32.0,29.95,ENE,74,6.0,-999.0,68,-99.99,,,0.01,weatherlink.com 1.10,2013-04-26 09:21:00,
2013-04-26 04:30:00,42.2,32.0,29.95,East,90,5.0,11.0,67,0.00,,SKC,0.01,VWS V14.01,2013-04-26 09:30:00,
2013-04-26 04:36:00,42.2,31.0,29.95,SE,132,6.0,-999.0,66,-99.99,,,0.01,weatherlink.com 1.10,2013-04-26 09:36:00,
2013-04-26 04:51:00,42.3,32.0,29.94,ESE,114,4.0,-999.0,68,-99.99,,,0.01,weatherlink.com 1.10,2013-04-26 09:51:00,
2013-04-26 05:00:00,42.4,33.0,29.94,ESE,112,5.0,12.0,69,0.00,,SKC,0.01,VWS V14.01,2013-04-26 10:00:00,
2013-04-26 05:06:00,42.8,33.0,29.94,ESE,113,1.0,-999.0,69,-99.99,,,0.01,weatherlink.com 1.10,2013-04-26 10:06:00,
2013-04-26 05:21:00,42.7,34.0,29.93,ESE,120,4.0,-999.0,70,-99.99,,,0.01,weatherlink.com 1.10,2013-04-26 10:21:00,
2013-04-26 05:30:00,42.6,33.5,29.93,ESE,112,3.0,8.0,70,0.00,,SKC,0.01,VWS V14.01,2013-04-26 10:30:00,
2013-04-26 05:36:00,42.4,34.0,29.93,ESE,119,2.0,-999.0,71,-99.99,,,0.01,weatherlink.com 1.10,2013-04-26 10:36:00,
2013-04-26 05:51:00,42.2,34.0,29.93,SE,124,4.0,-999.0,73,-99.99,,,0.01,weatherlink.com 1.10,2013-04-26 10:51:00,
2013-04-26 06:00:00,42.2,34.5,29.92,ESE,112,2.0,7.0,74,0.00,,SKC,0.01,VWS V14.01,2013-04-26 11:00:00,
2013-04-26 06:06:00,42.1,35.0,29.93,ESE,117,0.0,-999.0,75,-99.99,,,0.01,weatherlink.com 1.10,2013-04-26 11:06:00,
2013-04-26 06:21:00,41.9,35.0,29.93,ESE,117,0.0,-999.0,76,-99.99,,,0.01,weatherlink.com 1.10,2013-04-26 11:21:00,
2013-04-26 06:30:00,41.9,35.2,29.92,ESE,112,1.0,6.0,77,0.00,,SKC,0.01,VWS V14.01,2013-04-26 11:30:00,
2013-04-26 06:36:00,42.0,35.0,29.92,SE,125,4.0,-999.0,77,-99.99,,,0.01,weatherlink.com 1.10,2013-04-26 11:36:00,
2013-04-26 06:51:00,42.7,36.0,29.92,SE,125,6.0,-999.0,77,-99.99,,,0.01,weatherlink.com 1.10,2013-04-26 11:51:00,
2013-04-26 07:00:00,43.1,36.4,29.93,ESE,112,3.0,9.0,77,0.00,,SKC,0.01,VWS V14.01,2013-04-26 12:00:00,
2013-04-26 07:06:00,43.5,37.0,29.93,SE,126,5.0,-999.0,77,-99.99,,,0.01,weatherlink.com 1.10,2013-04-26 12:06:00,
2013-04-26 07:21:00,44.7,38.0,29.93,ESE,103,4.0,-999.0,76,-99.99,,,0.01,weatherlink.com 1.10,2013-04-26 12:21:00,
2013-04-26 07:30:00,45.6,38.2,29.93,SE,135,2.0,8.0,75,0.00,,SKC,0.01,VWS V14.01,2013-04-26 12:30:00,
2013-04-26 07:36:00,46.5,38.0,29.93,ESE,111,5.0,-999.0,73,-99.99,,,0.01,weatherlink.com 1.10,2013-04-26 12:36:00,
2013-04-26 07:51:00,48.2,39.0,29.93,SE,140,2.0,-999.0,71,-99.99,,,0.01,weatherlink.com 1.10,2013-04-26 12:51:00,
2013-04-26 08:00:00,49.0,40.0,29.93,SE,135,2.0,11.0,71,0.00,,SKC,0.01,VWS V14.01,2013-04-26 13:00:00,
2013-04-26 08:06:00,49.9,40.0,29.93,SE,137,2.0,-999.0,70,-99.99,,,0.01,weatherlink.com 1.10,2013-04-26 13:06:00,
2013-04-26 08:21:00,51.9,41.0,29.94,SSW,196,2.0,-999.0,67,-99.99,,,0.01,weatherlink.com 1.10,2013-04-26 13:21:00,
2013-04-26 08:30:00,52.7,41.3,29.94,SE,135,2.0,9.0,65,0.00,,SKC,0.01,VWS V14.01,2013-04-26 13:30:00,
2013-04-26 08:37:00,53.2,41.0,29.94,SE,140,4.0,-999.0,63,-99.99,,,0.01,weatherlink.com 1.10,2013-04-26 13:37:00,
2013-04-26 08:52:00,54.0,41.0,29.94,East,94,0.0,-999.0,62,-99.99,,,0.01,weatherlink.com 1.10,2013-04-26 13:52:00,
2013-04-26 09:00:00,54.4,41.7,29.94,SE,135,3.0,12.0,62,0.00,,SKC,0.01,VWS V14.01,2013-04-26 14:00:00,
2013-04-26 09:07:00,54.9,41.0,29.94,ESE,119,4.0,-999.0,61,-99.99,,,0.01,weatherlink.com 1.10,2013-04-26 14:07:00,
2013-04-26 09:22:00,56.2,42.0,29.95,SSE,160,0.0,-999.0,59,-99.99,,,0.01,weatherlink.com 1.10,2013-04-26 14:22:00,
2013-04-26 09:30:00,56.6,42.0,29.94,ESE,112,2.0,10.0,58,0.00,,SKC,0.01,VWS V14.01,2013-04-26 14:30:00,
2013-04-26 09:37:00,56.7,41.0,29.95,SSE,156,2.0,-999.0,57,-99.99,,,0.01,weatherlink.com 1.10,2013-04-26 14:37:00,
2013-04-26 09:52:00,57.7,41.0,29.95,NW,307,0.0,-999.0,55,-99.99,,,0.01,weatherlink.com 1.10,2013-04-26 14:52:00,
2013-04-26 10:00:00,57.4,41.4,29.95,West,270,2.0,12.0,55,0.00,,SKC,0.01,VWS V14.01,2013-04-26 15:00:00,
2013-04-26 10:07:00,57.6,41.0,29.95,ESE,117,0.0,-999.0,55,-99.99,,,0.01,weatherlink.com 1.10,2013-04-26 15:07:00,
2013-04-26 10:22:00,58.0,41.0,29.96,SW,225,2.0,-999.0,54,-99.99,,,0.01,weatherlink.com 1.10,2013-04-26 15:22:00,
2013-04-26 10:30:00,58.1,41.6,29.96,West,270,2.0,8.0,54,0.00,,SKC,0.01,VWS V14.01,2013-04-26 15:30:00,
2013-04-26 10:37:00,58.8,41.0,29.96,WNW,284,2.0,-999.0,53,-99.99,,,0.01,weatherlink.com 1.10,2013-04-26 15:37:00,
2013-04-26 10:52:00,59.5,42.0,29.97,NW,313,2.0,-999.0,52,-99.99,,,0.01,weatherlink.com 1.10,2013-04-26 15:52:00,
2013-04-26 11:00:00,59.7,42.1,29.97,West,270,1.0,7.0,52,0.00,,SKC,0.01,VWS V14.01,2013-04-26 16:00:00,
2013-04-26 11:07:00,59.9,42.0,29.98,WNW,293,4.0,-999.0,52,-99.99,,,0.01,weatherlink.com 1.10,2013-04-26 16:07:00,
2013-04-26 11:22:00,60.4,42.0,29.98,West,275,0.0,-999.0,51,-99.99,,,0.01,weatherlink.com 1.10,2013-04-26 16:22:00,
2013-04-26 11:30:00,60.4,41.2,29.98,NW,315,2.0,6.0,49,0.00,,SKC,0.01,VWS V14.01,2013-04-26 16:30:00,
2013-04-26 11:37:00,60.7,41.0,29.98,WNW,298,0.0,-999.0,49,-99.99,,,0.01,weatherlink.com 1.10,2013-04-26 16:37:00,
2013-04-26 11:52:00,61.7,41.0,29.99,West,267,1.0,-999.0,47,-99.99,,,0.01,weatherlink.com 1.10,2013-04-26 16:52:00,
2013-04-26 12:00:00,61.6,41.2,29.99,West,270,1.0,6.0,47,0.00,,SKC,0.01,VWS V14.01,2013-04-26 17:00:00,
2013-04-26 12:07:00,62.2,41.0,29.99,West,279,1.0,-999.0,46,-99.99,,,0.01,weatherlink.com 1.10,2013-04-26 17:07:00,
2013-04-26 12:22:00,63.8,44.0,29.98,North,350,0.0,-999.0,48,-99.99,,,0.01,weatherlink.com 1.10,2013-04-26 17:22:00,
2013-04-26 12:30:00,64.2,41.3,29.98,West,270,1.0,5.0,43,0.00,,SKC,0.01,VWS V14.01,2013-04-26 17:30:00,
2013-04-26 12:37:00,63.8,41.0,29.98,NNW,333,0.0,-999.0,44,-99.99,,,0.01,weatherlink.com 1.10,2013-04-26 17:37:00,
2013-04-26 12:52:00,64.9,42.0,29.98,SSW,209,2.0,-999.0,43,-99.99,,,0.01,weatherlink.com 1.10,2013-04-26 17:52:00,
2013-04-26 13:00:00,65.0,41.4,29.98,ESE,112,1.0,7.0,42,0.00,,SKC,0.01,VWS V14.01,2013-04-26 18:00:00,
2013-04-26 13:07:00,64.9,41.0,29.97,West,266,0.0,-999.0,42,-99.99,,,0.01,weatherlink.com 1.10,2013-04-26 18:07:00,
2013-04-26 13:22:00,65.6,42.0,29.98,NW,316,4.0,-999.0,43,-99.99,,,0.01,weatherlink.com 1.10,2013-04-26 18:22:00,
2013-04-26 13:30:00,66.3,41.3,29.98,WNW,292,1.0,6.0,40,0.00,,SKC,0.01,VWS V14.01,2013-04-26 18:30:00,
2013-04-26 13:37:00,66.2,41.0,29.98,NW,318,0.0,-999.0,40,-99.99,,,0.01,weatherlink.com 1.10,2013-04-26 18:37:00,
2013-04-26 13:52:00,66.8,42.0,29.98,SW,229,3.0,-999.0,41,-99.99,,,0.01,weatherlink.com 1.10,2013-04-26 18:52:00,
2013-04-26 14:00:00,67.0,41.9,29.98,NW,315,2.0,7.0,40,0.00,,SKC,0.01,VWS V14.01,2013-04-26 19:00:00,
2013-04-26 14:07:00,67.2,43.0,29.98,WNW,286,0.0,-999.0,41,-99.99,,,0.01,weatherlink.com 1.10,2013-04-26 19:07:00,
2013-04-26 14:22:00,67.4,41.0,29.98,ESE,116,6.0,-999.0,38,-99.99,,,0.01,weatherlink.com 1.10,2013-04-26 19:22:00,
2013-04-26 14:30:00,68.1,40.9,29.99,ESE,112,1.0,6.0,37,0.00,,SKC,0.01,VWS V14.01,2013-04-26 19:30:00,
2013-04-26 14:37:00,68.4,40.0,29.98,SE,138,2.0,-999.0,35,-99.99,,,0.01,weatherlink.com 1.10,2013-04-26 19:37:00,
2013-04-26 14:52:00,68.9,39.0,29.98,West,279,0.0,-999.0,34,-99.99,,,0.01,weatherlink.com 1.10,2013-04-26 19:52:00,
2013-04-26 15:00:00,69.3,39.8,29.98,SE,135,1.0,8.0,34,0.00,,SKC,0.01,VWS V14.01,2013-04-26 20:00:00,
2013-04-26 15:07:00,70.1,40.0,29.98,South,175,2.0,-999.0,33,-99.99,,,0.01,weatherlink.com 1.10,2013-04-26 20:07:00,
2013-04-26 15:23:00,69.4,39.0,29.98,SE,138,1.0,-999.0,33,-99.99,,,0.01,weatherlink.com 1.10,2013-04-26 20:23:00,
2013-04-26 15:30:00,69.7,38.5,29.99,WSW,248,2.0,8.0,32,0.00,,SKC,0.01,VWS V14.01,2013-04-26 20:30:00,
2013-04-26 15:38:00,70.1,38.0,29.98,NW,323,0.0,-999.0,31,-99.99,,,0.01,weatherlink.com 1.10,2013-04-26 20:38:00,
2013-04-26 15:53:00,70.0,39.0,29.98,WSW,241,0.0,-999.0,32,-99.99,,,0.01,weatherlink.com 1.10,2013-04-26 20:53:00,
2013-04-26 16:00:00,70.1,38.9,29.98,NW,315,1.0,7.0,32,0.00,,SKC,0.01,VWS V14.01,2013-04-26 21:00:00,
2013-04-26 16:08:00,70.3,40.0,29.99,West,259,3.0,-999.0,33,-99.99,,,0.01,weatherlink.com 1.10,2013-04-26 21:08:00,
2013-04-26 16:23:00,69.7,38.0,29.99,SW,228,0.0,-999.0,31,-99.99,,,0.01,weatherlink.com 1.10,2013-04-26 21:23:00,
2013-04-26 16:30:00,69.4,35.8,29.99,West,270,2.0,15.0,29,0.00,,SKC,0.01,VWS V14.01,2013-04-26 21:30:00,
2013-04-26 16:38:00,70.1,37.0,29.99,NW,322,6.0,-999.0,30,-99.99,,,0.01,weatherlink.com 1.10,2013-04-26 21:38:00,
2013-04-26 16:53:00,70.4,37.0,30.00,NW,306,4.0,-999.0,29,-99.99,,,0.01,weatherlink.com 1.10,2013-04-26 21:53:00,
2013-04-26 17:00:00,70.3,39.1,30.00,NW,315,3.0,9.0,32,0.00,,SKC,0.01,VWS V14.01,2013-04-26 22:00:00,
2013-04-26 17:08:00,70.3,41.0,30.00,West,271,7.0,-999.0,34,-99.99,,,0.01,weatherlink.com 1.10,2013-04-26 22:08:00,
2013-04-26 17:23:00,69.9,39.0,30.00,WNW,300,6.0,-999.0,33,-99.99,,,0.01,weatherlink.com 1.10,2013-04-26 22:23:00,
2013-04-26 17:30:00,69.6,40.0,30.00,NW,315,2.0,8.0,34,0.00,,SKC,0.01,VWS V14.01,2013-04-26 22:30:00,
2013-04-26 17:38:00,69.6,40.0,30.00,WNW,288,4.0,-999.0,34,-99.99,,,0.01,weatherlink.com 1.10,2013-04-26 22:38:00,
2013-04-26 17:53:00,69.7,38.0,30.01,NW,325,5.0,-999.0,32,-99.99,,,0.01,weatherlink.com 1.10,2013-04-26 22:53:00,
2013-04-26 18:00:00,69.5,39.2,30.01,NW,315,3.0,9.0,33,0.00,,SKC,0.01,VWS V14.01,2013-04-26 23:00:00,
2013-04-26 18:08:00,69.3,38.0,30.01,WNW,283,4.0,-999.0,32,-99.99,,,0.01,weatherlink.com 1.10,2013-04-26 23:08:00,
2013-04-26 18:23:00,68.9,37.0,30.01,WNW,302,4.0,-999.0,31,-99.99,,,0.01,weatherlink.com 1.10,2013-04-26 23:23:00,
2013-04-26 18:30:00,68.8,36.1,30.02,NW,315,3.0,10.0,30,0.00,,SKC,0.01,VWS V14.01,2013-04-26 23:30:00,
2013-04-26 18:38:00,68.6,37.0,30.02,NW,306,1.0,-999.0,32,-99.99,,,0.01,weatherlink.com 1.10,2013-04-26 23:38:00,
2013-04-26 18:53:00,67.8,37.0,30.02,WNW,286,2.0,-999.0,32,-99.99,,,0.01,weatherlink.com 1.10,2013-04-26 23:53:00,
2013-04-26 19:00:00,67.5,36.6,30.02,NW,315,2.0,7.0,32,0.00,,SKC,0.01,VWS V14.01,2013-04-27 00:00:00,
2013-04-26 19:08:00,67.0,37.0,30.02,NNW,332,1.0,-999.0,33,-99.99,,,0.01,weatherlink.com 1.10,2013-04-27 00:08:00,
2013-04-26 19:23:00,65.8,37.0,30.02,NW,317,1.0,-999.0,35,-99.99,,,0.01,weatherlink.com 1.10,2013-04-27 00:23:00,
2013-04-26 19:30:00,65.4,37.8,30.02,NW,315,1.0,7.0,36,0.00,,SKC,0.01,VWS V14.01,2013-04-27 00:30:00,
2013-04-26 19:38:00,64.8,38.0,30.03,WNW,293,0.0,-999.0,37,-99.99,,,0.01,weatherlink.com 1.10,2013-04-27 00:38:00,
2013-04-26 19:53:00,63.5,39.0,30.03,WNW,293,0.0,-999.0,40,-99.99,,,0.01,weatherlink.com 1.10,2013-04-27 00:53:00,
2013-04-26 20:00:00,62.9,38.2,30.03,NNW,338,0.0,2.0,40,0.00,,SKC,0.01,VWS V14.01,2013-04-27 01:00:00,
2013-04-26 20:08:00,62.1,38.0,30.03,WNW,293,0.0,-999.0,41,-99.99,,,0.01,weatherlink.com 1.10,2013-04-27 01:08:00,
2013-04-26 20:23:00,59.6,37.0,30.03,WNW,293,0.0,-999.0,44,-99.99,,,0.01,weatherlink.com 1.10,2013-04-27 01:23:00,
2013-04-26 20:30:00,58.4,37.2,30.03,NNW,338,0.0,0.0,45,0.00,,SKC,0.01,VWS V14.01,2013-04-27 01:30:00,
2013-04-26 20:38:00,56.8,37.0,30.04,WNW,293,0.0,-999.0,47,-99.99,,,0.01,weatherlink.com 1.10,2013-04-27 01:38:00,
2013-04-26 20:53:00,54.3,37.0,30.04,WNW,293,0.0,-999.0,52,-99.99,,,0.01,weatherlink.com 1.10,2013-04-27 01:53:00,
2013-04-26 21:00:00,53.6,36.9,30.05,NNW,338,0.0,0.0,53,0.00,,SKC,0.01,VWS V14.01,2013-04-27 02:00:00,
2013-04-26 21:08:00,52.7,37.0,30.05,WNW,293,0.0,-999.0,55,-99.99,,,0.01,weatherlink.com 1.10,2013-04-27 02:08:00,
2013-04-26 21:23:00,51.3,37.0,30.06,WNW,293,0.0,-999.0,58,-99.99,,,0.01,weatherlink.com 1.10,2013-04-27 02:23:00,
2013-04-26 21:30:00,50.9,36.7,30.06,NNW,338,0.0,0.0,58,0.00,,SKC,0.01,VWS V14.01,2013-04-27 02:30:00,
2013-04-26 21:38:00,50.3,37.0,30.06,WNW,293,0.0,-999.0,60,-99.99,,,0.01,weatherlink.com 1.10,2013-04-27 02:38:00,
2013-04-26 21:53:00,49.2,37.0,30.07,WNW,293,0.0,-999.0,63,-99.99,,,0.01,weatherlink.com 1.10,2013-04-27 02:53:00,
2013-04-26 22:00:00,48.8,37.2,30.07,NNW,338,0.0,0.0,64,0.00,,SKC,0.01,VWS V14.01,2013-04-27 03:00:00,
2013-04-26 22:08:00,48.2,38.0,30.07,WNW,293,0.0,-999.0,67,-99.99,,,0.01,weatherlink.com 1.10,2013-04-27 03:08:00,
2013-04-26 22:23:00,47.1,38.0,30.07,WNW,293,0.0,-999.0,70,-99.99,,,0.01,weatherlink.com 1.10,2013-04-27 03:23:00,
2013-04-26 22:30:00,46.8,37.9,30.08,NNW,338,0.0,0.0,71,0.00,,SKC,0.01,VWS V14.01,2013-04-27 03:30:00,
2013-04-26 22:38:00,46.2,37.0,30.08,WNW,293,0.0,-999.0,71,-99.99,,,0.01,weatherlink.com 1.10,2013-04-27 03:38:00,
2013-04-26 22:53:00,45.1,37.0,30.08,WNW,293,0.0,-999.0,73,-99.99,,,0.01,weatherlink.com 1.10,2013-04-27 03:53:00,
2013-04-26 23:00:00,44.6,36.8,30.08,NNW,338,0.0,0.0,74,0.00,,SKC,0.01,VWS V14.01,2013-04-27 04:00:00,
2013-04-26 23:08:00,43.9,36.0,30.08,WNW,293,0.0,-999.0,74,-99.99,,,0.01,weatherlink.com 1.10,2013-04-27 04:08:00,
2013-04-26 23:23:00,43.1,36.0,30.08,WNW,293,0.0,-999.0,76,-99.99,,,0.01,weatherlink.com 1.10,2013-04-27 04:23:00,
2013-04-26 23:30:00,42.6,35.9,30.08,NNW,338,0.0,0.0,77,0.00,,SKC,0.01,VWS V14.01,2013-04-27 04:30:00,
2013-04-26 23:38:00,42.0,36.0,30.09,WNW,293,0.0,-999.0,78,-99.99,,,0.01,weatherlink.com 1.10,2013-04-27 04:38:00,
2013-04-26 23:53:00,41.3,36.0,30.09,WNW,293,0.0,-999.0,80,-99.99,,,0.01,weatherlink.com 1.10,2013-04-27 04:53:00,